sensor_id;sensor_type;location;lat;lon;timestamp;P1;durP1;ratioP1;P2;durP2;ratioP2
1699;SDS011;847;48.058;7.810;2022-09-09T00:00:33;2.70;;;1.40;;
1699;SDS011;847;48.058;7.810;2022-09-09T00:03:05;4.40;;;1.60;;
1699;SDS011;847;48.058;7.810;2022-09-09T00:05:42;3.83;;;1.40;;
1699;SDS011;847;48.058;7.810;2022-09-09T00:08:15;3.93;;;1.47;;
1699;SDS011;847;48.058;7.810;2022-09-09T00:10:45;2.23;;;1.20;;
1699;SDS011;847;48.058;7.810;2022-09-09T00:13:21;3.63;;;1.50;;
1699;SDS011;847;48.058;7.810;2022-09-09T00:15:56;2.17;;;1.53;;
1699;SDS011;847;48.058;7.810;2022-09-09T00:18:27;5.43;;;1.73;;
1699;SDS011;847;48.058;7.810;2022-09-09T00:21:00;4.50;;;1.37;;
1699;SDS011;847;48.058;7.810;2022-09-09T00:23:32;3.77;;;1.77;;
1699;SDS011;847;48.058;7.810;2022-09-09T00:26:04;6.63;;;1.50;;
1699;SDS011;847;48.058;7.810;2022-09-09T00:28:38;3.43;;;1.47;;
1699;SDS011;847;48.058;7.810;2022-09-09T00:31:14;2.57;;;1.83;;
1699;SDS011;847;48.058;7.810;2022-09-09T00:33:47;1.83;;;1.60;;
1699;SDS011;847;48.058;7.810;2022-09-09T00:36:16;1.40;;;1.30;;
1699;SDS011;847;48.058;7.810;2022-09-09T00:38:48;2.70;;;1.50;;
1699;SDS011;847;48.058;7.810;2022-09-09T00:41:19;2.20;;;1.40;;
1699;SDS011;847;48.058;7.810;2022-09-09T00:43:52;3.00;;;1.53;;
1699;SDS011;847;48.058;7.810;2022-09-09T00:46:29;5.63;;;1.67;;
1699;SDS011;847;48.058;7.810;2022-09-09T00:49:11;3.23;;;1.60;;
1699;SDS011;847;48.058;7.810;2022-09-09T00:51:47;3.10;;;1.47;;
1699;SDS011;847;48.058;7.810;2022-09-09T00:57:13;4.20;;;1.67;;
1699;SDS011;847;48.058;7.810;2022-09-09T00:59:49;2.77;;;1.60;;
1699;SDS011;847;48.058;7.810;2022-09-09T01:02:25;2.33;;;1.37;;
1699;SDS011;847;48.058;7.810;2022-09-09T01:04:54;3.53;;;1.63;;
1699;SDS011;847;48.058;7.810;2022-09-09T01:07:27;2.70;;;1.40;;
1699;SDS011;847;48.058;7.810;2022-09-09T01:09:56;1.33;;;1.23;;
1699;SDS011;847;48.058;7.810;2022-09-09T01:12:27;2.40;;;1.33;;
1699;SDS011;847;48.058;7.810;2022-09-09T01:15:07;6.90;;;1.40;;
1699;SDS011;847;48.058;7.810;2022-09-09T01:17:41;5.60;;;1.73;;
1699;SDS011;847;48.058;7.810;2022-09-09T01:20:15;1.60;;;1.30;;
1699;SDS011;847;48.058;7.810;2022-09-09T01:22:49;4.10;;;1.40;;
1699;SDS011;847;48.058;7.810;2022-09-09T01:25:28;2.30;;;1.30;;
1699;SDS011;847;48.058;7.810;2022-09-09T01:27:59;1.97;;;1.30;;
1699;SDS011;847;48.058;7.810;2022-09-09T01:30:29;2.23;;;1.43;;
1699;SDS011;847;48.058;7.810;2022-09-09T01:32:58;3.87;;;1.30;;
1699;SDS011;847;48.058;7.810;2022-09-09T01:35:32;2.87;;;1.40;;
1699;SDS011;847;48.058;7.810;2022-09-09T01:38:09;7.83;;;1.70;;
1699;SDS011;847;48.058;7.810;2022-09-09T01:40:36;2.10;;;1.27;;
1699;SDS011;847;48.058;7.810;2022-09-09T01:43:04;2.43;;;1.30;;
1699;SDS011;847;48.058;7.810;2022-09-09T01:45:32;4.17;;;1.73;;
1699;SDS011;847;48.058;7.810;2022-09-09T01:47:59;3.60;;;1.77;;
1699;SDS011;847;48.058;7.810;2022-09-09T01:50:27;3.17;;;1.60;;
1699;SDS011;847;48.058;7.810;2022-09-09T01:52:55;3.20;;;1.60;;
1699;SDS011;847;48.058;7.810;2022-09-09T01:55:28;2.23;;;1.40;;
1699;SDS011;847;48.058;7.810;2022-09-09T01:57:58;2.47;;;1.30;;
1699;SDS011;847;48.058;7.810;2022-09-09T02:00:36;2.73;;;1.90;;
1699;SDS011;847;48.058;7.810;2022-09-09T02:03:08;2.93;;;1.40;;
1699;SDS011;847;48.058;7.810;2022-09-09T02:05:48;1.53;;;1.03;;
1699;SDS011;847;48.058;7.810;2022-09-09T02:08:23;3.97;;;1.20;;
1699;SDS011;847;48.058;7.810;2022-09-09T02:10:56;2.50;;;1.23;;
1699;SDS011;847;48.058;7.810;2022-09-09T02:13:29;3.53;;;1.30;;
1699;SDS011;847;48.058;7.810;2022-09-09T02:16:00;2.67;;;1.30;;
1699;SDS011;847;48.058;7.810;2022-09-09T02:18:32;4.10;;;1.30;;
1699;SDS011;847;48.058;7.810;2022-09-09T02:21:04;2.40;;;1.10;;
1699;SDS011;847;48.058;7.810;2022-09-09T02:23:32;3.47;;;1.30;;
1699;SDS011;847;48.058;7.810;2022-09-09T02:26:00;1.30;;;1.10;;
1699;SDS011;847;48.058;7.810;2022-09-09T02:28:31;1.43;;;1.07;;
1699;SDS011;847;48.058;7.810;2022-09-09T02:31:00;4.10;;;1.30;;
1699;SDS011;847;48.058;7.810;2022-09-09T02:33:28;2.93;;;1.37;;
1699;SDS011;847;48.058;7.810;2022-09-09T02:36:01;2.67;;;1.43;;
1699;SDS011;847;48.058;7.810;2022-09-09T02:38:32;4.87;;;1.50;;
1699;SDS011;847;48.058;7.810;2022-09-09T02:41:02;2.10;;;1.23;;
1699;SDS011;847;48.058;7.810;2022-09-09T02:43:32;2.73;;;1.20;;
1699;SDS011;847;48.058;7.810;2022-09-09T02:46:02;1.97;;;1.40;;
1699;SDS011;847;48.058;7.810;2022-09-09T02:48:36;2.97;;;1.10;;
1699;SDS011;847;48.058;7.810;2022-09-09T02:51:14;1.43;;;1.20;;
1699;SDS011;847;48.058;7.810;2022-09-09T02:53:52;4.37;;;2.00;;
1699;SDS011;847;48.058;7.810;2022-09-09T02:56:29;4.87;;;1.77;;
1699;SDS011;847;48.058;7.810;2022-09-09T02:59:02;2.30;;;1.00;;
1699;SDS011;847;48.058;7.810;2022-09-09T03:01:29;5.30;;;1.37;;
1699;SDS011;847;48.058;7.810;2022-09-09T03:03:56;4.40;;;1.50;;
1699;SDS011;847;48.058;7.810;2022-09-09T03:06:23;3.27;;;1.40;;
1699;SDS011;847;48.058;7.810;2022-09-09T03:08:50;2.43;;;1.20;;
1699;SDS011;847;48.058;7.810;2022-09-09T03:11:17;4.00;;;1.50;;
1699;SDS011;847;48.058;7.810;2022-09-09T03:13:44;2.13;;;1.30;;
1699;SDS011;847;48.058;7.810;2022-09-09T03:16:12;1.53;;;1.17;;
1699;SDS011;847;48.058;7.810;2022-09-09T03:18:40;2.63;;;1.40;;
1699;SDS011;847;48.058;7.810;2022-09-09T03:21:07;4.67;;;1.00;;
1699;SDS011;847;48.058;7.810;2022-09-09T03:23:34;3.00;;;1.30;;
1699;SDS011;847;48.058;7.810;2022-09-09T03:26:04;3.30;;;1.23;;
1699;SDS011;847;48.058;7.810;2022-09-09T03:28:31;3.93;;;1.40;;
1699;SDS011;847;48.058;7.810;2022-09-09T03:30:58;5.23;;;1.90;;
1699;SDS011;847;48.058;7.810;2022-09-09T03:33:27;4.77;;;1.40;;
1699;SDS011;847;48.058;7.810;2022-09-09T03:35:54;4.20;;;1.97;;
1699;SDS011;847;48.058;7.810;2022-09-09T03:38:21;2.90;;;1.27;;
1699;SDS011;847;48.058;7.810;2022-09-09T03:40:49;2.77;;;1.20;;
1699;SDS011;847;48.058;7.810;2022-09-09T03:43:18;2.43;;;1.40;;
1699;SDS011;847;48.058;7.810;2022-09-09T03:45:46;3.57;;;1.70;;
1699;SDS011;847;48.058;7.810;2022-09-09T03:48:13;2.43;;;1.33;;
1699;SDS011;847;48.058;7.810;2022-09-09T03:50:44;2.80;;;1.70;;
1699;SDS011;847;48.058;7.810;2022-09-09T03:53:11;3.33;;;1.57;;
1699;SDS011;847;48.058;7.810;2022-09-09T03:55:39;2.80;;;1.60;;
1699;SDS011;847;48.058;7.810;2022-09-09T03:58:10;2.97;;;1.23;;
1699;SDS011;847;48.058;7.810;2022-09-09T04:00:37;2.60;;;1.70;;
1699;SDS011;847;48.058;7.810;2022-09-09T04:03:07;2.33;;;1.37;;
1699;SDS011;847;48.058;7.810;2022-09-09T04:05:34;1.93;;;1.33;;
1699;SDS011;847;48.058;7.810;2022-09-09T04:08:05;3.30;;;1.20;;
1699;SDS011;847;48.058;7.810;2022-09-09T04:10:33;2.00;;;1.20;;
1699;SDS011;847;48.058;7.810;2022-09-09T04:13:01;2.77;;;1.80;;
1699;SDS011;847;48.058;7.810;2022-09-09T04:15:28;3.73;;;1.60;;
1699;SDS011;847;48.058;7.810;2022-09-09T04:17:55;2.63;;;1.53;;
1699;SDS011;847;48.058;7.810;2022-09-09T04:20:22;8.53;;;2.30;;
1699;SDS011;847;48.058;7.810;2022-09-09T04:22:49;2.67;;;1.67;;
1699;SDS011;847;48.058;7.810;2022-09-09T04:25:17;2.10;;;1.40;;
1699;SDS011;847;48.058;7.810;2022-09-09T04:27:43;3.93;;;1.57;;
1699;SDS011;847;48.058;7.810;2022-09-09T04:30:10;2.60;;;1.63;;
1699;SDS011;847;48.058;7.810;2022-09-09T04:32:38;3.83;;;1.70;;
1699;SDS011;847;48.058;7.810;2022-09-09T04:35:05;3.37;;;1.30;;
1699;SDS011;847;48.058;7.810;2022-09-09T04:37:32;5.70;;;1.27;;
1699;SDS011;847;48.058;7.810;2022-09-09T04:39:58;2.33;;;1.00;;
1699;SDS011;847;48.058;7.810;2022-09-09T04:42:28;1.70;;;0.97;;
1699;SDS011;847;48.058;7.810;2022-09-09T04:44:55;3.10;;;1.20;;
1699;SDS011;847;48.058;7.810;2022-09-09T04:47:21;2.30;;;1.40;;
1699;SDS011;847;48.058;7.810;2022-09-09T04:49:48;2.30;;;1.30;;
1699;SDS011;847;48.058;7.810;2022-09-09T04:52:15;2.60;;;1.30;;
1699;SDS011;847;48.058;7.810;2022-09-09T04:54:42;1.70;;;1.20;;
1699;SDS011;847;48.058;7.810;2022-09-09T04:57:10;2.10;;;1.07;;
1699;SDS011;847;48.058;7.810;2022-09-09T04:59:38;2.97;;;1.30;;
1699;SDS011;847;48.058;7.810;2022-09-09T05:02:05;3.33;;;1.13;;
1699;SDS011;847;48.058;7.810;2022-09-09T05:04:32;2.50;;;1.10;;
1699;SDS011;847;48.058;7.810;2022-09-09T05:06:59;2.40;;;1.33;;
1699;SDS011;847;48.058;7.810;2022-09-09T05:09:25;2.83;;;1.00;;
1699;SDS011;847;48.058;7.810;2022-09-09T05:11:52;1.70;;;0.93;;
1699;SDS011;847;48.058;7.810;2022-09-09T05:14:19;4.73;;;1.40;;
1699;SDS011;847;48.058;7.810;2022-09-09T05:16:48;1.83;;;1.10;;
1699;SDS011;847;48.058;7.810;2022-09-09T05:19:16;4.33;;;1.90;;
1699;SDS011;847;48.058;7.810;2022-09-09T05:21:44;2.03;;;1.10;;
1699;SDS011;847;48.058;7.810;2022-09-09T05:24:11;3.20;;;1.20;;
1699;SDS011;847;48.058;7.810;2022-09-09T05:26:38;2.90;;;1.07;;
1699;SDS011;847;48.058;7.810;2022-09-09T05:29:05;2.47;;;1.30;;
1699;SDS011;847;48.058;7.810;2022-09-09T05:31:33;2.40;;;1.00;;
1699;SDS011;847;48.058;7.810;2022-09-09T05:34:01;5.03;;;0.97;;
1699;SDS011;847;48.058;7.810;2022-09-09T05:36:28;1.13;;;1.03;;
1699;SDS011;847;48.058;7.810;2022-09-09T05:38:54;2.50;;;1.07;;
1699;SDS011;847;48.058;7.810;2022-09-09T05:41:21;3.00;;;1.00;;
1699;SDS011;847;48.058;7.810;2022-09-09T05:43:48;1.87;;;1.20;;
1699;SDS011;847;48.058;7.810;2022-09-09T05:46:16;1.90;;;1.13;;
1699;SDS011;847;48.058;7.810;2022-09-09T05:48:44;6.20;;;1.20;;
1699;SDS011;847;48.058;7.810;2022-09-09T05:51:14;2.30;;;1.10;;
1699;SDS011;847;48.058;7.810;2022-09-09T05:53:44;3.63;;;1.10;;
1699;SDS011;847;48.058;7.810;2022-09-09T05:56:12;1.63;;;1.20;;
1699;SDS011;847;48.058;7.810;2022-09-09T05:58:40;3.63;;;0.93;;
1699;SDS011;847;48.058;7.810;2022-09-09T06:01:09;3.20;;;1.00;;
1699;SDS011;847;48.058;7.810;2022-09-09T06:03:37;1.93;;;1.10;;
1699;SDS011;847;48.058;7.810;2022-09-09T06:06:06;2.50;;;1.00;;
1699;SDS011;847;48.058;7.810;2022-09-09T06:08:36;3.30;;;1.07;;
1699;SDS011;847;48.058;7.810;2022-09-09T06:11:05;2.20;;;1.00;;
1699;SDS011;847;48.058;7.810;2022-09-09T06:13:33;3.83;;;1.00;;
1699;SDS011;847;48.058;7.810;2022-09-09T06:16:02;1.90;;;1.20;;
1699;SDS011;847;48.058;7.810;2022-09-09T06:18:29;4.10;;;1.17;;
1699;SDS011;847;48.058;7.810;2022-09-09T06:20:56;3.57;;;1.20;;
1699;SDS011;847;48.058;7.810;2022-09-09T06:23:24;2.93;;;1.10;;
1699;SDS011;847;48.058;7.810;2022-09-09T06:25:59;3.60;;;1.10;;
1699;SDS011;847;48.058;7.810;2022-09-09T06:28:27;2.30;;;0.90;;
1699;SDS011;847;48.058;7.810;2022-09-09T06:30:56;3.23;;;0.80;;
1699;SDS011;847;48.058;7.810;2022-09-09T06:33:24;2.63;;;1.60;;
1699;SDS011;847;48.058;7.810;2022-09-09T06:35:51;3.10;;;1.07;;
1699;SDS011;847;48.058;7.810;2022-09-09T06:38:18;3.80;;;1.10;;
1699;SDS011;847;48.058;7.810;2022-09-09T06:40:50;3.80;;;1.17;;
1699;SDS011;847;48.058;7.810;2022-09-09T06:43:19;1.60;;;1.20;;
1699;SDS011;847;48.058;7.810;2022-09-09T06:45:52;4.20;;;1.00;;
1699;SDS011;847;48.058;7.810;2022-09-09T06:48:19;2.40;;;1.00;;
1699;SDS011;847;48.058;7.810;2022-09-09T06:50:46;3.37;;;1.20;;
1699;SDS011;847;48.058;7.810;2022-09-09T06:53:15;4.57;;;1.50;;
1699;SDS011;847;48.058;7.810;2022-09-09T06:55:44;4.80;;;1.17;;
1699;SDS011;847;48.058;7.810;2022-09-09T06:58:12;3.80;;;1.17;;
1699;SDS011;847;48.058;7.810;2022-09-09T07:00:39;4.50;;;1.30;;
1699;SDS011;847;48.058;7.810;2022-09-09T07:03:06;2.20;;;1.10;;
1699;SDS011;847;48.058;7.810;2022-09-09T07:05:32;2.33;;;1.10;;
1699;SDS011;847;48.058;7.810;2022-09-09T07:07:59;4.90;;;1.20;;
1699;SDS011;847;48.058;7.810;2022-09-09T07:10:26;2.83;;;1.20;;
1699;SDS011;847;48.058;7.810;2022-09-09T07:12:53;3.63;;;1.20;;
1699;SDS011;847;48.058;7.810;2022-09-09T07:15:21;1.27;;;0.93;;
1699;SDS011;847;48.058;7.810;2022-09-09T07:17:48;2.07;;;1.20;;
1699;SDS011;847;48.058;7.810;2022-09-09T07:20:15;4.90;;;1.27;;
1699;SDS011;847;48.058;7.810;2022-09-09T07:22:42;3.10;;;1.43;;
1699;SDS011;847;48.058;7.810;2022-09-09T07:25:09;2.37;;;1.03;;
1699;SDS011;847;48.058;7.810;2022-09-09T07:27:36;1.33;;;0.80;;
1699;SDS011;847;48.058;7.810;2022-09-09T07:30:03;1.90;;;1.00;;
1699;SDS011;847;48.058;7.810;2022-09-09T07:32:32;2.43;;;1.13;;
1699;SDS011;847;48.058;7.810;2022-09-09T07:34:58;1.37;;;1.00;;
1699;SDS011;847;48.058;7.810;2022-09-09T07:37:25;3.63;;;1.17;;
1699;SDS011;847;48.058;7.810;2022-09-09T07:39:52;3.07;;;1.43;;
1699;SDS011;847;48.058;7.810;2022-09-09T07:42:19;3.00;;;1.00;;
1699;SDS011;847;48.058;7.810;2022-09-09T07:44:45;2.87;;;0.80;;
1699;SDS011;847;48.058;7.810;2022-09-09T07:47:12;2.07;;;1.00;;
1699;SDS011;847;48.058;7.810;2022-09-09T07:49:40;1.93;;;1.00;;
1699;SDS011;847;48.058;7.810;2022-09-09T07:52:07;2.63;;;1.00;;
1699;SDS011;847;48.058;7.810;2022-09-09T07:54:33;1.90;;;0.90;;
1699;SDS011;847;48.058;7.810;2022-09-09T07:57:00;4.53;;;1.30;;
1699;SDS011;847;48.058;7.810;2022-09-09T07:59:28;2.33;;;1.13;;
1699;SDS011;847;48.058;7.810;2022-09-09T08:01:55;7.17;;;1.57;;
1699;SDS011;847;48.058;7.810;2022-09-09T08:04:23;2.40;;;1.40;;
1699;SDS011;847;48.058;7.810;2022-09-09T08:06:54;1.97;;;0.87;;
1699;SDS011;847;48.058;7.810;2022-09-09T08:09:23;4.27;;;1.30;;
1699;SDS011;847;48.058;7.810;2022-09-09T08:11:52;3.70;;;1.40;;
1699;SDS011;847;48.058;7.810;2022-09-09T08:14:19;2.47;;;1.13;;
1699;SDS011;847;48.058;7.810;2022-09-09T08:16:47;3.10;;;1.33;;
1699;SDS011;847;48.058;7.810;2022-09-09T08:19:14;3.00;;;0.87;;
1699;SDS011;847;48.058;7.810;2022-09-09T08:21:42;2.30;;;0.90;;
1699;SDS011;847;48.058;7.810;2022-09-09T08:24:11;1.63;;;0.90;;
1699;SDS011;847;48.058;7.810;2022-09-09T08:26:40;3.87;;;1.30;;
1699;SDS011;847;48.058;7.810;2022-09-09T08:29:09;2.70;;;1.17;;
1699;SDS011;847;48.058;7.810;2022-09-09T08:31:37;1.60;;;1.20;;
1699;SDS011;847;48.058;7.810;2022-09-09T08:34:05;3.67;;;0.90;;
1699;SDS011;847;48.058;7.810;2022-09-09T08:36:34;2.30;;;0.90;;
1699;SDS011;847;48.058;7.810;2022-09-09T08:39:03;4.27;;;1.73;;
1699;SDS011;847;48.058;7.810;2022-09-09T08:41:39;3.70;;;1.10;;
1699;SDS011;847;48.058;7.810;2022-09-09T08:44:19;1.83;;;0.90;;
1699;SDS011;847;48.058;7.810;2022-09-09T08:46:57;5.27;;;1.40;;
1699;SDS011;847;48.058;7.810;2022-09-09T08:49:41;3.20;;;1.10;;
1699;SDS011;847;48.058;7.810;2022-09-09T08:52:22;4.20;;;1.13;;
1699;SDS011;847;48.058;7.810;2022-09-09T08:54:52;2.30;;;0.87;;
1699;SDS011;847;48.058;7.810;2022-09-09T08:57:23;4.93;;;1.10;;
1699;SDS011;847;48.058;7.810;2022-09-09T08:59:52;2.67;;;1.00;;
1699;SDS011;847;48.058;7.810;2022-09-09T09:02:21;2.60;;;1.17;;
1699;SDS011;847;48.058;7.810;2022-09-09T09:04:57;5.87;;;1.13;;
1699;SDS011;847;48.058;7.810;2022-09-09T09:07:33;2.30;;;1.07;;
1699;SDS011;847;48.058;7.810;2022-09-09T09:10:15;3.80;;;1.10;;
1699;SDS011;847;48.058;7.810;2022-09-09T09:12:48;5.47;;;1.27;;
1699;SDS011;847;48.058;7.810;2022-09-09T09:15:16;3.83;;;1.27;;
1699;SDS011;847;48.058;7.810;2022-09-09T09:17:46;2.63;;;1.00;;
1699;SDS011;847;48.058;7.810;2022-09-09T09:20:15;3.07;;;2.03;;
1699;SDS011;847;48.058;7.810;2022-09-09T09:22:46;3.47;;;0.90;;
1699;SDS011;847;48.058;7.810;2022-09-09T09:25:16;2.40;;;1.00;;
1699;SDS011;847;48.058;7.810;2022-09-09T09:27:49;6.73;;;1.00;;
1699;SDS011;847;48.058;7.810;2022-09-09T09:30:23;4.50;;;1.20;;
1699;SDS011;847;48.058;7.810;2022-09-09T09:32:56;6.10;;;1.30;;
1699;SDS011;847;48.058;7.810;2022-09-09T09:35:27;6.77;;;1.13;;
1699;SDS011;847;48.058;7.810;2022-09-09T09:37:54;2.40;;;0.80;;
1699;SDS011;847;48.058;7.810;2022-09-09T09:40:21;1.37;;;0.70;;
1699;SDS011;847;48.058;7.810;2022-09-09T09:42:51;4.37;;;1.00;;
1699;SDS011;847;48.058;7.810;2022-09-09T09:45:25;1.73;;;0.87;;
1699;SDS011;847;48.058;7.810;2022-09-09T09:47:58;2.73;;;1.03;;
1699;SDS011;847;48.058;7.810;2022-09-09T09:50:27;4.50;;;1.30;;
1699;SDS011;847;48.058;7.810;2022-09-09T09:52:54;3.80;;;0.90;;
1699;SDS011;847;48.058;7.810;2022-09-09T09:55:22;1.03;;;0.70;;
1699;SDS011;847;48.058;7.810;2022-09-09T09:57:52;2.93;;;1.20;;
1699;SDS011;847;48.058;7.810;2022-09-09T10:00:20;4.23;;;1.03;;
1699;SDS011;847;48.058;7.810;2022-09-09T10:02:49;2.03;;;1.07;;
1699;SDS011;847;48.058;7.810;2022-09-09T10:05:18;3.30;;;1.47;;
1699;SDS011;847;48.058;7.810;2022-09-09T10:07:47;3.00;;;1.10;;
1699;SDS011;847;48.058;7.810;2022-09-09T10:10:26;5.00;;;1.10;;
1699;SDS011;847;48.058;7.810;2022-09-09T10:13:06;2.30;;;0.70;;
1699;SDS011;847;48.058;7.810;2022-09-09T10:15:41;3.10;;;1.10;;
1699;SDS011;847;48.058;7.810;2022-09-09T10:18:24;3.20;;;1.00;;
1699;SDS011;847;48.058;7.810;2022-09-09T10:21:10;4.63;;;1.00;;
1699;SDS011;847;48.058;7.810;2022-09-09T10:23:52;2.40;;;0.80;;
1699;SDS011;847;48.058;7.810;2022-09-09T10:26:35;2.43;;;1.10;;
1699;SDS011;847;48.058;7.810;2022-09-09T10:29:14;3.03;;;1.13;;
1699;SDS011;847;48.058;7.810;2022-09-09T10:31:52;4.83;;;1.30;;
1699;SDS011;847;48.058;7.810;2022-09-09T10:34:35;1.73;;;0.90;;
1699;SDS011;847;48.058;7.810;2022-09-09T10:37:17;2.77;;;0.83;;
1699;SDS011;847;48.058;7.810;2022-09-09T10:39:58;1.47;;;0.80;;
1699;SDS011;847;48.058;7.810;2022-09-09T10:42:29;1.83;;;0.70;;
1699;SDS011;847;48.058;7.810;2022-09-09T10:45:02;6.10;;;0.97;;
1699;SDS011;847;48.058;7.810;2022-09-09T10:47:45;4.53;;;1.20;;
1699;SDS011;847;48.058;7.810;2022-09-09T10:50:28;3.73;;;1.00;;
1699;SDS011;847;48.058;7.810;2022-09-09T10:53:14;4.10;;;1.33;;
1699;SDS011;847;48.058;7.810;2022-09-09T10:55:50;9.30;;;1.83;;
1699;SDS011;847;48.058;7.810;2022-09-09T10:58:20;1.90;;;0.80;;
1699;SDS011;847;48.058;7.810;2022-09-09T11:00:53;4.70;;;1.20;;
1699;SDS011;847;48.058;7.810;2022-09-09T11:03:23;4.00;;;1.20;;
1699;SDS011;847;48.058;7.810;2022-09-09T11:05:55;2.50;;;0.80;;
1699;SDS011;847;48.058;7.810;2022-09-09T11:08:26;2.07;;;1.00;;
1699;SDS011;847;48.058;7.810;2022-09-09T11:10:58;4.37;;;1.13;;
1699;SDS011;847;48.058;7.810;2022-09-09T11:13:29;5.57;;;0.77;;
1699;SDS011;847;48.058;7.810;2022-09-09T11:16:11;4.10;;;0.90;;
1699;SDS011;847;48.058;7.810;2022-09-09T11:18:48;3.97;;;0.87;;
1699;SDS011;847;48.058;7.810;2022-09-09T11:21:16;1.83;;;0.70;;
1699;SDS011;847;48.058;7.810;2022-09-09T11:23:48;3.10;;;0.70;;
1699;SDS011;847;48.058;7.810;2022-09-09T11:26:27;2.00;;;0.87;;
1699;SDS011;847;48.058;7.810;2022-09-09T11:29:02;2.93;;;0.83;;
1699;SDS011;847;48.058;7.810;2022-09-09T11:31:50;1.90;;;0.73;;
1699;SDS011;847;48.058;7.810;2022-09-09T11:34:29;2.80;;;0.80;;
1699;SDS011;847;48.058;7.810;2022-09-09T11:37:13;3.40;;;0.90;;
1699;SDS011;847;48.058;7.810;2022-09-09T11:42:39;2.77;;;0.97;;
1699;SDS011;847;48.058;7.810;2022-09-09T11:45:20;3.73;;;1.40;;
1699;SDS011;847;48.058;7.810;2022-09-09T11:47:52;2.97;;;1.47;;
1699;SDS011;847;48.058;7.810;2022-09-09T11:50:27;2.90;;;0.90;;
1699;SDS011;847;48.058;7.810;2022-09-09T11:55:58;2.30;;;0.80;;
1699;SDS011;847;48.058;7.810;2022-09-09T11:58:27;2.83;;;0.90;;
1699;SDS011;847;48.058;7.810;2022-09-09T12:00:58;4.00;;;0.80;;
1699;SDS011;847;48.058;7.810;2022-09-09T12:03:36;2.47;;;0.80;;
1699;SDS011;847;48.058;7.810;2022-09-09T12:06:09;2.50;;;0.63;;
1699;SDS011;847;48.058;7.810;2022-09-09T12:08:43;1.23;;;0.60;;
1699;SDS011;847;48.058;7.810;2022-09-09T12:11:23;2.17;;;0.77;;
1699;SDS011;847;48.058;7.810;2022-09-09T12:13:54;2.17;;;0.80;;
1699;SDS011;847;48.058;7.810;2022-09-09T12:16:29;2.90;;;1.07;;
1699;SDS011;847;48.058;7.810;2022-09-09T12:19:05;2.13;;;0.87;;
1699;SDS011;847;48.058;7.810;2022-09-09T12:21:40;1.27;;;0.63;;
1699;SDS011;847;48.058;7.810;2022-09-09T12:24:14;3.40;;;0.60;;
1699;SDS011;847;48.058;7.810;2022-09-09T12:26:47;6.27;;;1.00;;
1699;SDS011;847;48.058;7.810;2022-09-09T12:29:23;3.00;;;0.73;;
1699;SDS011;847;48.058;7.810;2022-09-09T12:31:56;3.17;;;0.80;;
1699;SDS011;847;48.058;7.810;2022-09-09T12:34:33;2.20;;;0.70;;
1699;SDS011;847;48.058;7.810;2022-09-09T12:37:06;4.83;;;0.80;;
1699;SDS011;847;48.058;7.810;2022-09-09T12:39:43;2.90;;;0.80;;
1699;SDS011;847;48.058;7.810;2022-09-09T12:42:16;2.50;;;0.73;;
1699;SDS011;847;48.058;7.810;2022-09-09T12:44:51;3.30;;;1.13;;
1699;SDS011;847;48.058;7.810;2022-09-09T12:47:18;2.50;;;0.87;;
1699;SDS011;847;48.058;7.810;2022-09-09T12:49:49;2.17;;;0.50;;
1699;SDS011;847;48.058;7.810;2022-09-09T12:52:18;3.40;;;0.80;;
1699;SDS011;847;48.058;7.810;2022-09-09T12:54:50;2.30;;;0.80;;
1699;SDS011;847;48.058;7.810;2022-09-09T12:57:18;3.70;;;0.87;;
1699;SDS011;847;48.058;7.810;2022-09-09T12:59:46;2.47;;;0.80;;
1699;SDS011;847;48.058;7.810;2022-09-09T13:02:20;1.83;;;0.87;;
1699;SDS011;847;48.058;7.810;2022-09-09T13:04:49;3.80;;;1.10;;
1699;SDS011;847;48.058;7.810;2022-09-09T13:07:17;2.23;;;0.80;;
1699;SDS011;847;48.058;7.810;2022-09-09T13:09:45;2.40;;;1.00;;
1699;SDS011;847;48.058;7.810;2022-09-09T13:12:14;4.80;;;1.10;;
1699;SDS011;847;48.058;7.810;2022-09-09T13:14:44;2.30;;;0.90;;
1699;SDS011;847;48.058;7.810;2022-09-09T13:17:17;1.43;;;1.17;;
1699;SDS011;847;48.058;7.810;2022-09-09T13:19:47;3.30;;;0.80;;
1699;SDS011;847;48.058;7.810;2022-09-09T13:22:20;1.40;;;0.80;;
1699;SDS011;847;48.058;7.810;2022-09-09T13:24:58;4.07;;;0.70;;
1699;SDS011;847;48.058;7.810;2022-09-09T13:27:29;4.87;;;0.80;;
1699;SDS011;847;48.058;7.810;2022-09-09T13:29:58;4.00;;;0.77;;
1699;SDS011;847;48.058;7.810;2022-09-09T13:32:26;3.93;;;0.80;;
1699;SDS011;847;48.058;7.810;2022-09-09T13:34:55;1.17;;;0.67;;
1699;SDS011;847;48.058;7.810;2022-09-09T13:37:24;1.60;;;1.13;;
1699;SDS011;847;48.058;7.810;2022-09-09T13:39:56;3.40;;;0.70;;
1699;SDS011;847;48.058;7.810;2022-09-09T13:42:24;3.20;;;0.97;;
1699;SDS011;847;48.058;7.810;2022-09-09T13:45:05;2.00;;;0.63;;
1699;SDS011;847;48.058;7.810;2022-09-09T13:47:41;3.43;;;0.57;;
1699;SDS011;847;48.058;7.810;2022-09-09T13:50:18;1.47;;;0.70;;
1699;SDS011;847;48.058;7.810;2022-09-09T13:52:45;1.87;;;0.80;;
1699;SDS011;847;48.058;7.810;2022-09-09T13:55:14;2.20;;;0.70;;
1699;SDS011;847;48.058;7.810;2022-09-09T13:57:49;2.60;;;0.70;;
1699;SDS011;847;48.058;7.810;2022-09-09T14:00:18;2.40;;;0.70;;
1699;SDS011;847;48.058;7.810;2022-09-09T14:02:45;3.67;;;1.20;;
1699;SDS011;847;48.058;7.810;2022-09-09T14:05:12;3.93;;;0.70;;
1699;SDS011;847;48.058;7.810;2022-09-09T14:07:40;1.50;;;0.60;;
1699;SDS011;847;48.058;7.810;2022-09-09T14:10:07;3.13;;;0.60;;
1699;SDS011;847;48.058;7.810;2022-09-09T14:12:34;1.53;;;0.50;;
1699;SDS011;847;48.058;7.810;2022-09-09T14:15:01;1.47;;;0.70;;
1699;SDS011;847;48.058;7.810;2022-09-09T14:17:30;1.33;;;0.60;;
1699;SDS011;847;48.058;7.810;2022-09-09T14:19:57;1.57;;;0.67;;
1699;SDS011;847;48.058;7.810;2022-09-09T14:22:24;2.10;;;0.80;;
1699;SDS011;847;48.058;7.810;2022-09-09T14:24:51;2.13;;;0.73;;
1699;SDS011;847;48.058;7.810;2022-09-09T14:27:18;1.60;;;0.80;;
1699;SDS011;847;48.058;7.810;2022-09-09T14:29:45;1.27;;;0.60;;
1699;SDS011;847;48.058;7.810;2022-09-09T14:32:12;2.00;;;0.60;;
1699;SDS011;847;48.058;7.810;2022-09-09T14:34:40;1.17;;;0.73;;
1699;SDS011;847;48.058;7.810;2022-09-09T14:37:07;1.87;;;0.50;;
1699;SDS011;847;48.058;7.810;2022-09-09T14:39:33;2.80;;;0.87;;
1699;SDS011;847;48.058;7.810;2022-09-09T14:42:00;2.23;;;0.80;;
1699;SDS011;847;48.058;7.810;2022-09-09T14:44:27;8.30;;;1.10;;
1699;SDS011;847;48.058;7.810;2022-09-09T14:46:54;1.60;;;0.57;;
1699;SDS011;847;48.058;7.810;2022-09-09T14:49:20;1.60;;;0.50;;
1699;SDS011;847;48.058;7.810;2022-09-09T14:51:51;1.73;;;0.70;;
1699;SDS011;847;48.058;7.810;2022-09-09T14:54:18;3.60;;;1.00;;
1699;SDS011;847;48.058;7.810;2022-09-09T14:56:46;1.30;;;0.60;;
1699;SDS011;847;48.058;7.810;2022-09-09T14:59:13;0.90;;;0.50;;
1699;SDS011;847;48.058;7.810;2022-09-09T15:01:39;2.13;;;0.70;;
1699;SDS011;847;48.058;7.810;2022-09-09T15:04:06;2.33;;;0.63;;
1699;SDS011;847;48.058;7.810;2022-09-09T15:06:34;3.40;;;0.80;;
1699;SDS011;847;48.058;7.810;2022-09-09T15:09:04;2.10;;;0.80;;
1699;SDS011;847;48.058;7.810;2022-09-09T15:11:33;2.20;;;1.10;;
1699;SDS011;847;48.058;7.810;2022-09-09T15:14:02;7.30;;;1.17;;
1699;SDS011;847;48.058;7.810;2022-09-09T15:16:30;1.33;;;0.77;;
1699;SDS011;847;48.058;7.810;2022-09-09T15:18:58;4.47;;;0.80;;
1699;SDS011;847;48.058;7.810;2022-09-09T15:21:26;1.70;;;0.70;;
1699;SDS011;847;48.058;7.810;2022-09-09T15:23:55;1.10;;;0.60;;
1699;SDS011;847;48.058;7.810;2022-09-09T15:26:23;4.13;;;1.20;;
1699;SDS011;847;48.058;7.810;2022-09-09T15:28:51;1.53;;;0.60;;
1699;SDS011;847;48.058;7.810;2022-09-09T15:31:18;2.00;;;0.90;;
1699;SDS011;847;48.058;7.810;2022-09-09T15:33:46;2.40;;;0.60;;
1699;SDS011;847;48.058;7.810;2022-09-09T15:36:14;1.37;;;0.50;;
1699;SDS011;847;48.058;7.810;2022-09-09T15:38:42;1.43;;;0.70;;
1699;SDS011;847;48.058;7.810;2022-09-09T15:41:09;2.30;;;0.80;;
1699;SDS011;847;48.058;7.810;2022-09-09T15:43:37;1.27;;;0.60;;
1699;SDS011;847;48.058;7.810;2022-09-09T15:46:08;0.63;;;0.60;;
1699;SDS011;847;48.058;7.810;2022-09-09T15:48:52;4.63;;;0.80;;
1699;SDS011;847;48.058;7.810;2022-09-09T15:51:19;2.97;;;0.57;;
1699;SDS011;847;48.058;7.810;2022-09-09T15:53:46;2.43;;;1.00;;
1699;SDS011;847;48.058;7.810;2022-09-09T15:56:13;1.87;;;0.80;;
1699;SDS011;847;48.058;7.810;2022-09-09T15:58:41;1.27;;;0.57;;